createdAt,value
2023-03-04T00:02:42.006Z,69.93
2023-03-04T00:06:42.024Z,71.50
2023-03-04T00:10:42.081Z,70.91
2023-03-04T00:14:42.179Z,71.98
2023-03-04T00:18:42.218Z,71.72
2023-03-04T00:22:42.288Z,72.27
2023-03-04T00:26:42.412Z,70.78
2023-03-04T00:30:42.465Z,70.29
2023-03-04T00:34:42.525Z,71.34
2023-03-04T00:38:42.664Z,68.92
2023-03-04T00:42:42.679Z,70.97
2023-03-04T00:46:42.842Z,68.26
2023-03-04T00:50:42.812Z,68.94
2023-03-04T00:54:42.893Z,66.18
2023-03-04T00:58:42.972Z,69.04
2023-03-04T01:02:43.147Z,65.22
2023-03-04T01:06:43.152Z,66.29
2023-03-04T01:10:43.223Z,69.19
2023-03-04T01:14:43.282Z,66.14
2023-03-04T01:18:43.334Z,66.13
2023-03-04T01:22:43.433Z,67.10
2023-03-04T01:26:43.488Z,67.55
2023-03-04T01:30:43.581Z,66.04
2023-03-04T01:34:43.622Z,67.93
2023-03-04T01:38:43.684Z,68.84
2023-03-04T01:42:43.789Z,64.17
2023-03-04T01:46:43.863Z,65.01
2023-03-04T01:50:44.000Z,68.18
2023-03-04T01:54:44.093Z,66.50
2023-03-04T01:58:44.210Z,63.93
2023-03-04T02:02:44.296Z,68.95
2023-03-04T02:06:44.420Z,66.75
2023-03-04T02:10:44.520Z,65.82
2023-03-04T02:14:44.612Z,66.90
2023-03-04T02:18:44.719Z,66.22
2023-03-04T02:22:44.844Z,65.93
2023-03-04T02:26:44.934Z,65.66
2023-03-04T02:30:45.005Z,62.52
2023-03-04T02:34:46.243Z,63.46
2023-03-04T02:38:45.265Z,65.59
2023-03-04T02:42:45.331Z,66.51
2023-03-04T02:46:45.508Z,67.09
2023-03-04T02:50:45.584Z,62.46
2023-03-04T02:54:45.724Z,64.05
2023-03-04T02:58:45.794Z,61.05
2023-03-04T03:02:45.892Z,64.88
2023-03-04T03:06:46.025Z,65.03
2023-03-04T03:10:46.106Z,61.21
2023-03-04T03:14:46.207Z,65.36
2023-03-04T03:18:46.272Z,65.53
2023-03-04T03:22:46.396Z,62.40
2023-03-04T03:26:46.471Z,63.29
2023-03-04T03:30:46.585Z,61.40
2023-03-04T03:34:46.701Z,60.49
2023-03-04T03:38:46.827Z,62.01
2023-03-04T03:42:46.940Z,64.09
2023-03-04T03:46:47.011Z,64.56
2023-03-04T03:50:47.089Z,63.43
2023-03-04T03:54:47.220Z,62.72
2023-03-04T03:58:47.289Z,57.57
2023-03-04T04:02:47.534Z,66.41
2023-03-04T04:06:47.445Z,65.48
2023-03-04T04:10:47.599Z,63.24
2023-03-04T04:14:47.727Z,61.31
2023-03-04T04:18:47.850Z,60.13
2023-03-04T04:22:47.943Z,62.07
2023-03-04T04:26:48.079Z,59.61
2023-03-04T04:30:48.210Z,63.36
2023-03-04T04:34:48.421Z,62.53
2023-03-04T04:38:48.511Z,59.47
2023-03-04T04:42:48.630Z,57.08
2023-03-04T04:46:48.804Z,61.23
2023-03-04T04:50:48.954Z,57.87
2023-03-04T04:54:49.138Z,58.61
2023-03-04T04:58:49.251Z,59.05
2023-03-04T05:02:49.383Z,57.92
2023-03-04T05:06:49.556Z,54.87
2023-03-04T05:10:49.690Z,54.99
2023-03-04T05:14:49.854Z,56.59
2023-03-04T05:18:49.973Z,55.77
2023-03-04T05:22:50.147Z,56.10
2023-03-04T05:26:50.342Z,54.59
2023-03-04T05:30:50.530Z,57.20
2023-03-04T05:34:50.707Z,57.11
2023-03-04T05:38:50.843Z,53.71
2023-03-04T05:42:51.040Z,54.08
2023-03-04T05:46:51.220Z,53.83
2023-03-04T05:50:51.364Z,53.87
2023-03-04T05:54:51.553Z,52.33
2023-03-04T05:58:51.728Z,50.10
2023-03-04T06:02:51.977Z,54.21
2023-03-04T06:06:52.046Z,54.25
2023-03-04T06:10:52.244Z,52.46
2023-03-04T06:14:52.453Z,52.52
2023-03-04T06:18:52.563Z,49.66
2023-03-04T06:22:52.728Z,51.80
2023-03-04T06:26:53.001Z,52.64
2023-03-04T06:30:53.122Z,50.76
2023-03-04T06:34:53.273Z,51.51
2023-03-04T06:38:53.417Z,45.92
2023-03-04T06:42:53.612Z,47.40
2023-03-04T06:46:53.822Z,45.17
2023-03-04T06:50:53.982Z,51.10
2023-03-04T06:54:54.107Z,49.21
2023-03-04T06:58:54.276Z,47.74
2023-03-04T07:02:55.267Z,46.83
2023-03-04T07:06:54.626Z,48.90
2023-03-04T07:10:54.769Z,43.70
2023-03-04T07:14:54.922Z,46.68
2023-03-04T07:18:55.091Z,45.68
2023-03-04T07:22:55.254Z,44.33
2023-03-04T07:26:55.390Z,46.41
2023-03-04T07:30:55.571Z,45.10
2023-03-04T07:34:55.713Z,45.89
2023-03-04T07:38:55.882Z,44.89
2023-03-04T07:42:56.009Z,44.18
2023-03-04T07:46:56.158Z,43.82
2023-03-04T07:50:56.218Z,45.43
2023-03-04T07:54:56.317Z,43.75
2023-03-04T07:58:56.381Z,44.63
2023-03-04T08:02:56.449Z,44.18
2023-03-04T08:06:56.544Z,42.72
2023-03-04T08:10:56.637Z,46.93
2023-03-04T08:14:56.773Z,44.61
2023-03-04T08:18:56.878Z,46.15
2023-03-04T08:22:56.999Z,42.85
2023-03-04T08:26:57.125Z,47.05
2023-03-04T08:30:57.243Z,44.30
2023-03-04T08:34:57.297Z,40.48
2023-03-04T08:38:57.389Z,40.60
2023-03-04T08:42:57.485Z,43.04
2023-03-04T08:46:57.576Z,42.56
2023-03-04T08:50:57.636Z,43.08
2023-03-04T08:54:57.648Z,42.57
2023-03-04T08:58:57.675Z,40.68
2023-03-04T09:02:57.751Z,42.72
2023-03-04T09:06:57.789Z,45.10
2023-03-04T09:10:57.886Z,42.39
2023-03-04T09:15:10.306Z,41.08
2023-03-04T09:18:58.872Z,42.21
2023-03-04T09:22:57.794Z,40.11
2023-03-04T09:26:57.817Z,40.97
2023-03-04T09:30:57.751Z,39.52
2023-03-04T09:34:57.696Z,41.22
2023-03-04T09:38:57.643Z,41.71
2023-03-04T09:42:57.625Z,42.09
2023-03-04T09:46:57.620Z,41.54
2023-03-04T09:50:57.646Z,41.13
2023-03-04T09:54:57.658Z,44.43
2023-03-04T09:58:57.695Z,43.17
2023-03-04T10:02:57.657Z,42.17
2023-03-04T10:06:57.669Z,39.95
2023-03-04T10:10:57.718Z,42.46
2023-03-04T10:14:57.710Z,40.54
2023-03-04T10:18:57.618Z,40.66
2023-03-04T10:22:57.654Z,42.73
2023-03-04T10:26:57.628Z,41.55
2023-03-04T10:30:57.611Z,46.39
2023-03-04T10:34:57.578Z,44.96
2023-03-04T10:38:57.586Z,43.54
2023-03-04T10:42:57.572Z,45.25
2023-03-04T10:46:57.546Z,44.51
2023-03-04T10:50:57.625Z,43.57
2023-03-04T10:54:57.607Z,41.58
2023-03-04T10:58:57.616Z,44.89
2023-03-04T11:02:57.591Z,42.21
2023-03-04T11:06:57.646Z,44.38
2023-03-04T11:10:57.806Z,45.19
2023-03-04T11:14:57.894Z,43.05
2023-03-04T11:18:58.003Z,45.78
2023-03-04T11:22:58.176Z,43.94
2023-03-04T11:26:58.230Z,43.85
2023-03-04T11:30:58.334Z,46.44
2023-03-04T11:34:58.443Z,47.03
2023-03-04T11:38:58.421Z,47.96
2023-03-04T11:42:58.562Z,49.24
2023-03-04T11:46:58.662Z,50.45
2023-03-04T11:50:58.872Z,55.48
2023-03-04T11:54:59.069Z,56.90
2023-03-04T11:58:59.234Z,55.51
2023-03-04T12:02:59.188Z,52.52
2023-03-04T12:06:59.176Z,53.01
2023-03-04T12:10:59.101Z,55.06
2023-03-04T12:14:59.172Z,54.76
2023-03-04T12:18:59.021Z,55.07
2023-03-04T12:22:58.981Z,59.44
2023-03-04T12:26:58.973Z,59.46
2023-03-04T12:30:58.964Z,55.91
2023-03-04T12:34:58.893Z,59.70
2023-03-04T12:38:58.844Z,57.67
2023-03-04T12:42:59.039Z,61.42
2023-03-04T12:46:59.047Z,60.66
2023-03-04T12:50:58.971Z,59.49
2023-03-04T12:54:58.984Z,64.17
2023-03-04T12:58:58.935Z,63.75
2023-03-04T13:02:58.972Z,63.56
2023-03-04T13:06:58.822Z,61.14
2023-03-04T13:10:58.809Z,63.66
2023-03-04T13:14:58.762Z,64.61
2023-03-04T13:18:58.736Z,68.09
2023-03-04T13:22:59.363Z,69.68
2023-03-04T13:26:58.664Z,70.55
2023-03-04T13:30:58.620Z,69.52
2023-03-04T13:34:58.666Z,70.38
2023-03-04T13:38:58.747Z,73.19
2023-03-04T13:42:58.906Z,73.94
2023-03-04T13:46:59.011Z,74.50
2023-03-04T13:50:58.997Z,78.43
2023-03-04T13:54:59.364Z,79.03
2023-03-04T13:58:59.122Z,80.14
2023-03-04T14:02:59.097Z,81.94
2023-03-04T14:06:59.167Z,81.24
2023-03-04T14:10:59.153Z,84.44
2023-03-04T14:14:59.144Z,85.02
2023-03-04T14:18:59.154Z,85.15
2023-03-04T14:22:59.252Z,85.81
2023-03-04T14:26:59.449Z,86.32
2023-03-04T14:30:59.349Z,84.54
2023-03-04T14:34:59.335Z,85.51
2023-03-04T14:38:59.292Z,83.03
2023-03-04T14:42:59.244Z,86.40
2023-03-04T14:47:07.497Z,84.42
2023-03-04T14:51:00.196Z,86.67
2023-03-04T14:54:59.154Z,84.71
2023-03-04T14:58:59.181Z,89.88
2023-03-04T15:02:59.361Z,87.57
2023-03-04T15:06:59.542Z,84.79
2023-03-04T15:10:59.651Z,86.66
2023-03-04T15:14:59.760Z,82.76
2023-03-04T15:18:59.832Z,86.67
2023-03-04T15:22:59.901Z,82.54
2023-03-04T15:26:59.918Z,81.90
2023-03-04T15:30:59.969Z,83.11
2023-03-04T15:34:59.974Z,82.06
2023-03-04T15:38:59.945Z,81.85
2023-03-04T15:42:59.920Z,80.98
2023-03-04T15:46:59.921Z,78.24
2023-03-04T15:50:59.932Z,77.65
2023-03-04T15:54:59.917Z,76.88
2023-03-04T15:58:59.937Z,74.21
2023-03-04T16:03:00.048Z,73.20
2023-03-04T16:07:00.191Z,72.71
2023-03-04T16:11:00.283Z,70.05
2023-03-04T16:15:00.490Z,69.22
2023-03-04T16:19:00.610Z,71.26
2023-03-04T16:23:00.756Z,72.72
2023-03-04T16:27:00.980Z,69.58
2023-03-04T16:31:01.233Z,67.79
2023-03-04T16:35:01.353Z,69.48
2023-03-04T16:39:01.546Z,67.82
2023-03-04T16:43:01.799Z,68.17
2023-03-04T16:47:01.969Z,67.06
2023-03-04T16:51:01.937Z,65.99
2023-03-04T16:55:01.921Z,64.77
2023-03-04T16:59:01.862Z,65.84
2023-03-04T17:03:01.846Z,62.33
2023-03-04T17:07:01.786Z,62.35
2023-03-04T17:11:01.743Z,61.96
2023-03-04T17:15:01.708Z,61.52
2023-03-04T17:19:01.712Z,60.32
2023-03-04T17:23:01.623Z,59.94
2023-03-04T17:27:01.583Z,59.78
2023-03-04T17:31:01.592Z,58.68
2023-03-04T17:35:01.498Z,59.21
2023-03-04T17:39:01.493Z,56.83
2023-03-04T17:43:01.442Z,56.36
2023-03-04T17:47:01.406Z,55.65
2023-03-04T17:51:01.378Z,56.53
2023-03-04T17:55:01.345Z,56.92
2023-03-04T17:59:01.298Z,56.75
2023-03-04T18:03:01.243Z,56.85
2023-03-04T18:07:01.222Z,55.18
2023-03-04T18:11:01.209Z,55.67
2023-03-04T18:15:01.145Z,56.78
2023-03-04T18:19:01.133Z,56.11
2023-03-04T18:23:01.233Z,54.17
2023-03-04T18:27:01.288Z,56.22
2023-03-04T18:31:01.392Z,55.13
2023-03-04T18:35:01.462Z,54.09
2023-03-04T18:39:01.561Z,52.77
2023-03-04T18:43:01.646Z,51.97
2023-03-04T18:47:01.793Z,51.73
2023-03-04T18:51:01.922Z,52.22
2023-03-04T18:55:01.979Z,51.64
2023-03-04T18:59:02.150Z,50.68
2023-03-04T19:03:02.280Z,52.27
2023-03-04T19:07:02.418Z,50.74
2023-03-04T19:11:02.624Z,49.44
2023-03-04T19:15:02.725Z,48.73
2023-03-04T19:19:02.902Z,47.22
2023-03-04T19:23:03.056Z,48.73
2023-03-04T19:27:03.241Z,48.89
2023-03-04T19:31:03.480Z,50.24
2023-03-04T19:35:03.591Z,46.46
2023-03-04T19:39:03.824Z,49.60
2023-03-04T19:43:04.008Z,47.66
2023-03-04T19:47:04.189Z,47.41
2023-03-04T19:51:04.167Z,48.48
2023-03-04T19:55:04.085Z,47.76
2023-03-04T19:59:04.087Z,49.09
2023-03-04T20:03:04.046Z,46.83
2023-03-04T20:07:04.001Z,48.92
2023-03-04T20:11:04.003Z,45.58
2023-03-04T20:15:03.923Z,44.76
2023-03-04T20:19:03.892Z,44.82
2023-03-04T20:23:03.838Z,45.10
2023-03-04T20:27:03.837Z,48.21
2023-03-04T20:31:03.787Z,52.84
2023-03-04T20:35:03.704Z,48.87
2023-03-04T20:39:08.320Z,48.87
2023-03-04T20:43:04.677Z,50.98
2023-03-04T20:47:03.634Z,51.24
2023-03-04T20:51:03.681Z,44.33
2023-03-04T20:55:03.780Z,47.31
2023-03-04T20:59:04.012Z,48.61
2023-03-04T21:03:04.134Z,51.61
2023-03-04T21:07:04.106Z,50.53
2023-03-04T21:11:04.032Z,47.17
2023-03-04T21:15:04.036Z,50.04
2023-03-04T21:19:03.983Z,46.75
2023-03-04T21:23:03.968Z,48.15
2023-03-04T21:27:03.937Z,46.17
2023-03-04T21:31:03.916Z,48.34
2023-03-04T21:35:03.849Z,46.99
2023-03-04T21:39:03.774Z,45.96
2023-03-04T21:43:03.808Z,48.86
2023-03-04T21:47:03.736Z,49.46
2023-03-04T21:51:03.730Z,48.15
2023-03-04T21:55:04.034Z,46.96
2023-03-04T21:59:04.005Z,45.44
2023-03-04T22:03:03.637Z,51.57
2023-03-04T22:07:03.595Z,47.32
2023-03-04T22:11:03.668Z,48.10
2023-03-04T22:15:03.764Z,48.24
2023-03-04T22:19:03.861Z,48.03
2023-03-04T22:23:03.904Z,49.30
2023-03-04T22:27:03.946Z,47.40
2023-03-04T22:31:04.008Z,47.92
2023-03-04T22:35:04.137Z,47.12
2023-03-04T22:39:04.141Z,48.16
2023-03-04T22:43:04.144Z,45.69
2023-03-04T22:47:04.212Z,46.89
2023-03-04T22:51:04.135Z,48.81
2023-03-04T22:55:04.132Z,46.84
2023-03-04T22:59:04.063Z,49.62
2023-03-04T23:03:04.029Z,45.18
2023-03-04T23:07:04.015Z,47.87
2023-03-04T23:11:04.030Z,48.63
2023-03-04T23:15:04.061Z,49.63
2023-03-04T23:19:04.065Z,45.74
2023-03-04T23:23:04.086Z,46.76
2023-03-04T23:27:04.062Z,48.33
2023-03-04T23:31:05.972Z,46.24
2023-03-04T23:35:04.128Z,46.03
2023-03-04T23:39:04.210Z,46.38
2023-03-04T23:43:04.230Z,47.89
2023-03-04T23:47:04.267Z,45.53
2023-03-04T23:51:04.278Z,47.08
2023-03-04T23:55:04.317Z,47.79
2023-03-04T23:59:04.331Z,47.07
